createdAt,value
2019-03-16T00:01:20.865Z,9.60
2019-03-16T00:03:48.467Z,9.60
2019-03-16T00:06:16.071Z,9.60
2019-03-16T00:08:43.796Z,9.50
2019-03-16T00:11:11.470Z,9.50
2019-03-16T00:13:39.020Z,9.50
2019-03-16T00:16:06.699Z,9.50
2019-03-16T00:18:34.275Z,9.50
2019-03-16T00:21:01.848Z,9.50
2019-03-16T00:23:29.408Z,9.50
2019-03-16T00:25:57.016Z,9.50
2019-03-16T00:28:24.618Z,9.40
2019-03-16T00:30:52.851Z,9.40
2019-03-16T00:33:20.539Z,9.40
2019-03-16T00:35:48.104Z,9.40
2019-03-16T00:38:15.692Z,9.40
2019-03-16T00:40:43.244Z,9.40
2019-03-16T00:43:10.966Z,9.40
2019-03-16T00:45:38.648Z,9.40
2019-03-16T00:48:07.051Z,9.40
2019-03-16T00:50:34.702Z,9.30
2019-03-16T00:53:02.220Z,9.30
2019-03-16T00:55:30.150Z,9.30
2019-03-16T00:57:57.868Z,9.30
2019-03-16T01:00:26.162Z,9.30
2019-03-16T01:02:53.762Z,9.30
2019-03-16T01:05:22.858Z,9.30
2019-03-16T01:07:50.440Z,9.20
2019-03-16T01:10:18.067Z,9.20
2019-03-16T01:12:45.689Z,9.20
2019-03-16T01:15:13.318Z,9.20
2019-03-16T01:17:40.922Z,9.20
2019-03-16T01:20:08.564Z,9.20
2019-03-16T01:22:36.189Z,9.20
2019-03-16T01:25:04.331Z,9.20
2019-03-16T01:27:32.048Z,9.20
2019-03-16T01:29:59.968Z,9.10
2019-03-16T01:32:39.746Z,9.10
2019-03-16T01:34:56.903Z,9.10
2019-03-16T01:37:24.477Z,9.10
2019-03-16T01:39:52.097Z,9.10
2019-03-16T01:42:21.206Z,9.00
2019-03-16T01:44:49.141Z,9.00
2019-03-16T01:47:16.670Z,9.00
2019-03-16T01:49:44.273Z,9.00
2019-03-16T01:52:11.831Z,9.00
2019-03-16T01:54:39.509Z,9.00
2019-03-16T01:57:07.104Z,9.00
2019-03-16T01:59:34.789Z,9.00
2019-03-16T02:02:02.368Z,8.90
2019-03-16T02:04:30.797Z,9.00
2019-03-16T02:06:58.361Z,9.00
2019-03-16T02:09:26.004Z,9.00
2019-03-16T02:11:53.619Z,9.00
2019-03-16T02:14:21.281Z,9.00
2019-03-16T02:16:48.907Z,8.90
2019-03-16T02:19:16.507Z,9.00
2019-03-16T02:21:44.147Z,9.00
2019-03-16T02:24:11.886Z,9.00
2019-03-16T02:26:39.451Z,9.00
2019-03-16T02:29:07.131Z,9.00
2019-03-16T02:31:34.675Z,9.00
2019-03-16T02:34:02.385Z,9.10
2019-03-16T02:36:29.972Z,9.10
2019-03-16T02:38:57.539Z,9.10
2019-03-16T02:41:26.269Z,9.10
2019-03-16T02:43:54.182Z,9.10
2019-03-16T02:46:21.822Z,9.10
2019-03-16T02:48:50.078Z,9.20
2019-03-16T02:51:17.612Z,9.30
2019-03-16T02:53:45.176Z,9.30
2019-03-16T02:56:12.740Z,9.40
2019-03-16T02:58:40.292Z,9.50
2019-03-16T03:01:07.851Z,9.60
2019-03-16T03:03:35.426Z,9.80
2019-03-16T03:06:03.172Z,10.00
2019-03-16T03:08:30.918Z,10.10
2019-03-16T03:10:58.744Z,10.20
2019-03-16T03:13:26.336Z,10.30
2019-03-16T03:15:54.077Z,10.30
2019-03-16T03:18:23.254Z,10.30
2019-03-16T03:20:50.838Z,10.40
2019-03-16T03:23:18.405Z,10.40
2019-03-16T03:25:45.978Z,10.40
2019-03-16T03:28:13.528Z,10.40
2019-03-16T03:30:41.102Z,10.40
2019-03-16T03:33:08.667Z,10.40
2019-03-16T03:35:37.028Z,10.40
2019-03-16T03:38:04.597Z,10.40
2019-03-16T03:40:32.197Z,10.50
2019-03-16T03:42:59.779Z,10.40
2019-03-16T03:45:27.399Z,10.50
2019-03-16T03:47:54.927Z,10.50
2019-03-16T03:50:22.510Z,10.50
2019-03-16T03:52:50.106Z,10.50
2019-03-16T03:55:18.173Z,10.50
2019-03-16T03:57:45.830Z,10.50
2019-03-16T04:00:13.590Z,10.40
2019-03-16T04:02:41.121Z,10.40
2019-03-16T04:05:08.977Z,10.40
2019-03-16T04:07:36.675Z,10.50
2019-03-16T04:10:05.233Z,10.50
2019-03-16T04:12:32.866Z,10.50
2019-03-16T04:15:00.597Z,10.50
2019-03-16T04:17:28.952Z,10.40
2019-03-16T04:19:56.512Z,10.40
2019-03-16T04:22:24.104Z,10.40
2019-03-16T04:24:51.767Z,10.40
2019-03-16T04:27:19.396Z,10.40
2019-03-16T04:29:46.930Z,10.40
2019-03-16T04:32:14.478Z,10.40
2019-03-16T04:34:44.854Z,10.40
2019-03-16T04:37:12.846Z,10.40
2019-03-16T04:39:40.443Z,10.40
2019-03-16T04:42:08.045Z,10.40
2019-03-16T04:44:35.984Z,10.40
2019-03-16T04:47:03.600Z,10.40
2019-03-16T04:49:31.161Z,10.40
2019-03-16T04:51:59.206Z,10.40
2019-03-16T04:54:27.202Z,10.30
2019-03-16T04:56:54.788Z,10.30
2019-03-16T04:59:22.336Z,10.30
2019-03-16T05:01:50.075Z,10.40
2019-03-16T05:04:17.719Z,10.40
2019-03-16T05:06:45.293Z,10.40
2019-03-16T05:09:13.572Z,10.40
2019-03-16T05:11:41.191Z,10.40
2019-03-16T05:14:08.849Z,10.40
2019-03-16T05:16:36.408Z,10.30
2019-03-16T05:19:03.985Z,10.30
2019-03-16T05:21:31.596Z,10.30
2019-03-16T05:24:01.616Z,10.30
2019-03-16T05:26:29.234Z,10.30
2019-03-16T05:28:56.752Z,10.30
2019-03-16T05:31:24.429Z,10.30
2019-03-16T05:33:51.974Z,10.40
2019-03-16T05:36:19.591Z,10.30
2019-03-16T05:38:47.716Z,10.30
2019-03-16T05:41:15.276Z,10.30
2019-03-16T05:43:42.819Z,10.30
2019-03-16T05:46:10.376Z,10.30
2019-03-16T05:48:37.939Z,10.30
2019-03-16T05:51:06.402Z,10.30
2019-03-16T05:53:33.983Z,10.30
2019-03-16T05:56:01.561Z,10.30
2019-03-16T05:58:29.157Z,10.40
2019-03-16T06:00:56.725Z,10.40
2019-03-16T06:03:24.586Z,10.40
2019-03-16T06:05:52.222Z,10.40
2019-03-16T06:08:19.780Z,10.40
2019-03-16T06:10:47.376Z,10.40
2019-03-16T06:13:14.965Z,10.40
2019-03-16T06:15:42.541Z,10.40
2019-03-16T06:18:13.060Z,10.40
2019-03-16T06:20:40.473Z,10.40
2019-03-16T06:23:08.088Z,10.40
2019-03-16T06:25:35.707Z,10.40
2019-03-16T06:28:03.337Z,10.40
2019-03-16T06:30:30.925Z,10.40
2019-03-16T06:32:59.039Z,10.40
2019-03-16T06:35:29.372Z,10.40
2019-03-16T06:40:23.123Z,10.40
2019-03-16T06:42:50.727Z,10.40
2019-03-16T06:45:18.302Z,10.40
2019-03-16T06:47:45.974Z,10.40
2019-03-16T06:50:13.630Z,10.50
2019-03-16T06:52:41.418Z,10.50
2019-03-16T06:55:09.967Z,10.40
2019-03-16T06:57:38.618Z,10.40
2019-03-16T07:00:07.006Z,10.50
2019-03-16T07:02:35.247Z,10.50
2019-03-16T07:05:04.143Z,10.50
2019-03-16T07:07:31.725Z,10.50
2019-03-16T07:09:59.435Z,10.50
2019-03-16T07:12:27.302Z,10.60
2019-03-16T07:14:55.043Z,10.50
2019-03-16T07:17:22.680Z,10.50
2019-03-16T07:19:50.702Z,10.50
2019-03-16T07:22:18.305Z,10.60
2019-03-16T07:24:45.934Z,10.60
2019-03-16T07:27:25.543Z,10.60
2019-03-16T07:29:43.072Z,10.50
2019-03-16T07:32:10.793Z,10.50
2019-03-16T07:34:38.422Z,10.50
2019-03-16T07:37:06.125Z,10.60
2019-03-16T07:39:33.847Z,10.60
2019-03-16T07:42:01.664Z,10.60
2019-03-16T07:44:30.050Z,10.60
2019-03-16T07:46:57.637Z,10.60
2019-03-16T07:49:25.255Z,10.60
2019-03-16T07:51:52.880Z,10.60
2019-03-16T07:54:23.837Z,10.60
2019-03-16T07:56:51.838Z,10.60
2019-03-16T07:59:19.453Z,10.70
2019-03-16T08:01:48.153Z,10.60
2019-03-16T08:04:16.227Z,10.60
2019-03-16T08:06:43.828Z,10.70
2019-03-16T08:09:11.666Z,10.70
2019-03-16T08:11:40.275Z,10.70
2019-03-16T08:14:08.400Z,10.70
2019-03-16T08:16:36.289Z,10.70
2019-03-16T08:19:04.002Z,10.80
2019-03-16T08:21:34.604Z,10.80
2019-03-16T08:24:02.154Z,10.90
2019-03-16T08:26:29.735Z,10.90
2019-03-16T08:28:59.138Z,10.90
2019-03-16T08:31:26.847Z,10.90
2019-03-16T08:33:54.996Z,11.00
2019-03-16T08:36:22.614Z,11.00
2019-03-16T08:38:50.432Z,11.10
2019-03-16T08:41:20.313Z,11.00
2019-03-16T08:43:47.918Z,11.10
2019-03-16T08:46:18.905Z,11.10
2019-03-16T08:48:46.519Z,11.30
2019-03-16T08:51:15.264Z,11.30
2019-03-16T08:53:42.864Z,11.30
2019-03-16T08:56:10.423Z,11.30
2019-03-16T08:58:38.164Z,11.40
2019-03-16T09:01:05.806Z,11.40
2019-03-16T09:03:43.187Z,11.50
2019-03-16T09:06:02.936Z,11.60
2019-03-16T09:08:31.312Z,11.70
2019-03-16T09:10:58.967Z,11.70
2019-03-16T09:13:26.910Z,11.80
2019-03-16T09:15:54.508Z,11.90
2019-03-16T09:18:22.149Z,11.80
2019-03-16T09:20:49.810Z,11.80
2019-03-16T09:23:18.193Z,11.70
2019-03-16T09:25:45.825Z,11.60
2019-03-16T09:28:18.705Z,11.60
2019-03-16T09:30:43.149Z,11.60
2019-03-16T09:33:10.830Z,11.70
2019-03-16T09:35:38.538Z,11.60
2019-03-16T09:38:06.450Z,11.60
2019-03-16T09:40:34.086Z,11.70
2019-03-16T09:43:01.681Z,11.70
2019-03-16T09:45:29.325Z,11.70
2019-03-16T09:47:57.317Z,11.80
2019-03-16T09:50:25.020Z,11.90
2019-03-16T09:52:52.679Z,11.90
2019-03-16T09:55:20.332Z,11.90
2019-03-16T09:57:47.973Z,11.90
2019-03-16T10:00:15.656Z,11.90
2019-03-16T10:02:43.361Z,11.80
2019-03-16T10:05:11.892Z,11.70
2019-03-16T10:07:39.601Z,11.60
2019-03-16T10:10:07.622Z,11.60
2019-03-16T10:12:35.265Z,11.60
2019-03-16T10:15:03.311Z,11.60
2019-03-16T10:17:32.998Z,11.60
2019-03-16T10:20:01.109Z,11.60
2019-03-16T10:22:28.929Z,11.50
2019-03-16T10:24:56.531Z,11.60
2019-03-16T10:27:24.210Z,11.60
2019-03-16T10:29:51.940Z,11.80
2019-03-16T10:32:24.459Z,11.90
2019-03-16T10:34:52.128Z,11.90
2019-03-16T10:37:31.858Z,11.80
2019-03-16T10:40:01.140Z,11.80
2019-03-16T10:42:50.069Z,11.70
2019-03-16T10:45:19.822Z,11.70
2019-03-16T10:47:47.525Z,12.00
2019-03-16T10:50:15.134Z,12.00
2019-03-16T10:53:07.215Z,11.90
2019-03-16T10:55:35.277Z,12.00
2019-03-16T10:58:05.260Z,12.00
2019-03-16T11:00:32.921Z,12.10
2019-03-16T11:03:13.191Z,12.00
2019-03-16T11:05:40.817Z,12.00
2019-03-16T11:08:13.577Z,12.00
2019-03-16T11:10:41.361Z,11.80
2019-03-16T11:13:09.086Z,11.80
2019-03-16T11:15:41.181Z,11.80
2019-03-16T11:18:42.993Z,11.70
2019-03-16T11:21:37.412Z,11.80
2019-03-16T11:24:05.533Z,11.90
2019-03-16T11:26:33.720Z,11.70
2019-03-16T11:29:08.906Z,11.80
2019-03-16T11:31:30.847Z,11.80
2019-03-16T11:33:58.503Z,11.70
2019-03-16T11:36:27.243Z,11.70
2019-03-16T11:38:55.011Z,11.70
2019-03-16T11:41:22.703Z,11.80
2019-03-16T11:43:50.363Z,11.80
2019-03-16T11:46:19.011Z,11.80
2019-03-16T11:48:47.726Z,11.80
2019-03-16T11:51:15.618Z,11.90
2019-03-16T11:54:02.764Z,11.90
2019-03-16T11:56:49.092Z,12.00
2019-03-16T11:59:22.906Z,11.90
2019-03-16T12:01:51.832Z,11.90
2019-03-16T12:04:19.496Z,11.90
2019-03-16T12:06:47.107Z,11.80
2019-03-16T12:09:14.868Z,11.90
2019-03-16T12:11:42.929Z,11.90
2019-03-16T12:14:10.709Z,11.80
2019-03-16T12:16:38.713Z,11.90
2019-03-16T12:19:06.756Z,11.80
2019-03-16T12:21:34.701Z,11.80
2019-03-16T12:24:02.510Z,11.90
2019-03-16T12:26:30.085Z,11.90
2019-03-16T12:28:57.720Z,11.90
2019-03-16T12:31:25.433Z,12.00
2019-03-16T12:33:53.046Z,12.00
2019-03-16T12:36:20.721Z,11.90
2019-03-16T12:38:49.137Z,11.90
2019-03-16T12:41:16.903Z,11.90
2019-03-16T12:43:44.639Z,11.90
2019-03-16T12:46:12.352Z,11.90
2019-03-16T12:48:40.157Z,11.90
2019-03-16T12:51:07.995Z,11.90
2019-03-16T12:53:35.716Z,11.90
2019-03-16T12:56:05.126Z,11.90
2019-03-16T12:58:32.878Z,11.90
2019-03-16T13:01:00.500Z,11.90
2019-03-16T13:03:28.131Z,11.90
2019-03-16T13:05:55.824Z,11.90
2019-03-16T13:08:23.698Z,11.90
2019-03-16T13:10:51.360Z,11.90
2019-03-16T13:13:19.004Z,11.90
2019-03-16T13:15:46.840Z,11.90
2019-03-16T13:18:15.366Z,11.90
2019-03-16T13:20:42.942Z,11.90
2019-03-16T13:23:10.940Z,12.00
2019-03-16T13:25:40.464Z,11.90
2019-03-16T13:28:08.096Z,12.00
2019-03-16T13:30:36.062Z,11.90
2019-03-16T13:33:03.676Z,11.90
2019-03-16T13:35:31.328Z,11.90
2019-03-16T13:37:59.049Z,11.90
2019-03-16T13:40:26.872Z,12.00
2019-03-16T13:42:54.478Z,12.00
2019-03-16T13:45:22.138Z,11.90
2019-03-16T13:47:51.906Z,12.00
2019-03-16T13:50:19.408Z,12.20
2019-03-16T13:52:47.777Z,12.30
2019-03-16T13:55:15.762Z,12.30
2019-03-16T13:57:44.144Z,12.40
2019-03-16T14:00:13.247Z,12.40
2019-03-16T14:02:40.900Z,12.40
2019-03-16T14:05:08.944Z,12.40
2019-03-16T14:07:36.896Z,12.30
2019-03-16T14:10:06.017Z,12.30
2019-03-16T14:12:33.629Z,12.30
2019-03-16T14:15:01.280Z,12.20
2019-03-16T14:17:48.864Z,12.30
2019-03-16T14:20:16.782Z,12.30
2019-03-16T14:22:45.244Z,12.40
2019-03-16T14:25:12.924Z,12.40
2019-03-16T14:27:40.710Z,12.40
2019-03-16T14:30:29.094Z,12.30
2019-03-16T14:32:42.535Z,12.30
2019-03-16T14:35:10.347Z,12.30
2019-03-16T14:37:38.032Z,12.30
2019-03-16T14:40:06.443Z,12.20
2019-03-16T14:42:34.566Z,12.20
2019-03-16T14:45:02.208Z,12.10
2019-03-16T14:47:29.987Z,12.20
2019-03-16T14:49:57.703Z,12.20
2019-03-16T14:52:27.861Z,12.30
2019-03-16T14:54:55.530Z,12.40
2019-03-16T14:57:23.204Z,12.40
2019-03-16T14:59:50.934Z,12.40
2019-03-16T15:02:19.005Z,12.40
2019-03-16T15:04:46.667Z,12.40
2019-03-16T15:07:14.343Z,12.30
2019-03-16T15:09:42.465Z,12.40
2019-03-16T15:12:10.201Z,12.40
2019-03-16T15:14:37.999Z,12.40
2019-03-16T15:17:05.693Z,12.50
2019-03-16T15:19:33.521Z,12.50
2019-03-16T15:22:01.150Z,12.50
2019-03-16T15:24:28.845Z,12.40
2019-03-16T15:26:57.792Z,12.50
2019-03-16T15:29:25.413Z,12.50
2019-03-16T15:31:53.743Z,12.50
2019-03-16T15:34:21.491Z,12.50
2019-03-16T15:36:49.271Z,12.50
2019-03-16T15:39:16.951Z,12.50
2019-03-16T15:41:44.719Z,12.50
2019-03-16T15:44:13.211Z,12.50
2019-03-16T15:46:40.946Z,12.50
2019-03-16T15:49:08.639Z,12.50
2019-03-16T15:51:36.415Z,12.50
2019-03-16T15:54:04.288Z,12.50
2019-03-16T15:56:32.009Z,12.50
2019-03-16T15:58:59.835Z,12.50
2019-03-16T16:01:27.607Z,12.40
2019-03-16T16:03:57.713Z,12.50
2019-03-16T16:06:25.586Z,12.50
2019-03-16T16:08:53.403Z,12.40
2019-03-16T16:11:21.162Z,12.50
2019-03-16T16:13:48.850Z,12.50
2019-03-16T16:16:16.576Z,12.50
2019-03-16T16:18:45.311Z,12.50
2019-03-16T16:21:15.478Z,12.50
2019-03-16T16:23:43.159Z,12.50
2019-03-16T16:26:10.948Z,12.50
2019-03-16T16:28:39.499Z,12.50
2019-03-16T16:31:16.376Z,12.50
2019-03-16T16:33:36.858Z,12.50
2019-03-16T16:36:04.641Z,12.50
2019-03-16T16:38:32.355Z,12.50
2019-03-16T16:41:29.400Z,12.50
2019-03-16T16:43:57.312Z,12.40
2019-03-16T16:46:25.541Z,12.50
2019-03-16T16:48:53.315Z,12.50
2019-03-16T16:51:20.953Z,12.50
2019-03-16T16:53:48.697Z,12.50
2019-03-16T16:56:19.332Z,12.50
2019-03-16T16:58:47.852Z,12.50
2019-03-16T17:01:28.496Z,12.40
2019-03-16T17:03:45.070Z,12.40
2019-03-16T17:06:12.675Z,12.40
2019-03-16T17:08:40.578Z,12.40
2019-03-16T17:11:11.747Z,12.40
2019-03-16T17:14:19.466Z,12.40
2019-03-16T17:16:45.056Z,12.40
2019-03-16T17:19:12.728Z,12.40
2019-03-16T17:21:42.541Z,12.40
2019-03-16T17:24:13.365Z,12.40
2019-03-16T17:26:41.034Z,12.40
2019-03-16T17:29:26.070Z,12.40
2019-03-16T17:31:54.558Z,12.40
2019-03-16T17:34:22.237Z,12.40
2019-03-16T17:36:49.825Z,12.40
2019-03-16T17:39:18.184Z,12.40
2019-03-16T17:41:45.777Z,12.40
2019-03-16T17:44:13.498Z,12.30
2019-03-16T17:46:42.874Z,12.30
2019-03-16T17:49:11.105Z,12.30
2019-03-16T17:51:38.892Z,12.30
2019-03-16T17:54:06.479Z,12.30
2019-03-16T17:56:34.120Z,12.20
2019-03-16T17:59:02.120Z,12.30
2019-03-16T18:01:29.764Z,12.30
2019-03-16T18:03:58.325Z,12.30
2019-03-16T18:06:28.374Z,12.30
2019-03-16T18:08:56.076Z,12.30
2019-03-16T18:11:26.804Z,12.20
2019-03-16T18:13:54.457Z,12.20
2019-03-16T18:16:22.122Z,12.20
2019-03-16T18:18:49.761Z,12.20
2019-03-16T18:21:17.419Z,12.20
2019-03-16T18:23:45.535Z,12.20
2019-03-16T18:26:13.147Z,12.10
2019-03-16T18:28:40.983Z,12.10
2019-03-16T18:31:11.455Z,12.00
2019-03-16T18:33:39.070Z,12.00
2019-03-16T18:36:06.765Z,12.00
2019-03-16T18:38:37.551Z,12.00
2019-03-16T18:41:06.477Z,12.00
2019-03-16T18:43:34.505Z,12.00
2019-03-16T18:46:03.355Z,12.00
2019-03-16T18:48:30.977Z,12.00
2019-03-16T18:50:58.623Z,12.00
2019-03-16T18:53:26.242Z,12.10
2019-03-16T18:55:56.315Z,12.10
2019-03-16T18:58:36.561Z,12.10
2019-03-16T19:00:53.433Z,12.10
2019-03-16T19:03:21.356Z,12.20
2019-03-16T19:05:49.596Z,12.10
2019-03-16T19:08:17.559Z,12.10
2019-03-16T19:10:45.420Z,12.10
2019-03-16T19:13:13.231Z,12.20
2019-03-16T19:15:42.941Z,12.10
2019-03-16T19:18:10.699Z,12.20
2019-03-16T19:20:38.940Z,12.20
2019-03-16T19:23:08.549Z,12.20
2019-03-16T19:25:37.187Z,12.20
2019-03-16T19:28:07.804Z,12.20
2019-03-16T19:30:35.453Z,12.20
2019-03-16T19:33:03.194Z,12.20
2019-03-16T19:35:30.879Z,12.20
2019-03-16T19:38:01.254Z,12.20
2019-03-16T19:40:28.907Z,12.10
2019-03-16T19:42:56.561Z,12.20
2019-03-16T19:45:26.435Z,12.20
2019-03-16T19:47:54.765Z,12.20
2019-03-16T19:50:22.708Z,12.30
2019-03-16T19:52:50.406Z,12.30
2019-03-16T19:55:18.585Z,12.20
2019-03-16T19:57:46.493Z,12.20
2019-03-16T20:00:14.235Z,12.30
2019-03-16T20:02:50.292Z,12.30
2019-03-16T20:05:15.230Z,12.30
2019-03-16T20:07:43.131Z,12.30
2019-03-16T20:11:06.917Z,12.20
2019-03-16T20:13:33.767Z,12.30
2019-03-16T20:16:01.487Z,12.30
2019-03-16T20:18:29.217Z,12.20
2019-03-16T20:20:56.874Z,12.30
2019-03-16T20:23:24.455Z,12.30
2019-03-16T20:25:52.177Z,12.30
2019-03-16T20:28:20.327Z,12.30
2019-03-16T20:30:47.861Z,12.30
2019-03-16T20:33:23.674Z,12.20
2019-03-16T20:35:51.299Z,12.20
2019-03-16T20:38:18.959Z,12.20
2019-03-16T20:40:49.718Z,12.20
2019-03-16T20:43:20.519Z,12.20
2019-03-16T20:45:48.162Z,12.20
2019-03-16T20:51:24.249Z,12.20
2019-03-16T20:53:52.073Z,12.10
2019-03-16T20:56:19.817Z,12.10
2019-03-16T20:58:48.687Z,12.10
2019-03-16T21:01:16.502Z,12.00
2019-03-16T21:03:44.216Z,12.00
2019-03-16T21:06:12.254Z,12.00
2019-03-16T21:08:40.766Z,12.00
2019-03-16T21:11:12.528Z,12.00
2019-03-16T21:13:46.223Z,12.00
2019-03-16T21:16:18.042Z,12.00
2019-03-16T21:18:59.100Z,12.10
2019-03-16T21:21:23.198Z,12.00
2019-03-16T21:23:50.872Z,12.10
2019-03-16T21:26:18.594Z,12.10
2019-03-16T21:28:46.256Z,12.00
2019-03-16T21:31:15.740Z,12.00
2019-03-16T21:33:45.931Z,12.00
2019-03-16T21:36:16.620Z,12.00
2019-03-16T21:38:44.493Z,12.00
2019-03-16T21:41:12.139Z,12.10
2019-03-16T21:43:39.904Z,12.10
2019-03-16T21:46:07.571Z,12.00
2019-03-16T21:48:35.694Z,12.00
2019-03-16T21:51:05.484Z,12.00
2019-03-16T21:53:38.690Z,11.90
2019-03-16T21:56:07.301Z,12.00
2019-03-16T21:58:35.086Z,12.00
2019-03-16T22:01:05.618Z,12.00
2019-03-16T22:03:41.734Z,12.00
2019-03-16T22:06:11.783Z,12.00
2019-03-16T22:08:43.148Z,12.00
2019-03-16T22:11:14.651Z,12.00
2019-03-16T22:13:42.520Z,12.10
2019-03-16T22:16:11.822Z,12.00
2019-03-16T22:18:47.030Z,12.00
2019-03-16T22:21:15.503Z,11.90
2019-03-16T22:23:44.740Z,11.90
2019-03-16T22:26:13.244Z,11.90
2019-03-16T22:28:40.952Z,11.90
2019-03-16T22:31:11.371Z,11.90
2019-03-16T22:33:39.982Z,11.80
2019-03-16T22:36:08.569Z,11.80
2019-03-16T22:38:36.676Z,11.80
2019-03-16T22:41:04.936Z,11.80
2019-03-16T22:43:32.748Z,11.80
2019-03-16T22:46:01.133Z,11.80
2019-03-16T22:48:29.496Z,11.80
2019-03-16T22:51:00.447Z,11.80
2019-03-16T22:53:28.088Z,11.70
2019-03-16T22:56:23.683Z,11.70
2019-03-16T22:58:57.707Z,11.70
2019-03-16T23:01:29.410Z,11.70
2019-03-16T23:04:06.885Z,11.70
2019-03-16T23:06:30.170Z,11.60
2019-03-16T23:08:58.153Z,11.60
2019-03-16T23:11:26.884Z,11.50
2019-03-16T23:13:56.524Z,11.50
2019-03-16T23:16:28.017Z,11.40
2019-03-16T23:18:56.566Z,11.50
2019-03-16T23:21:25.330Z,11.40
2019-03-16T23:23:53.668Z,11.30
2019-03-16T23:26:37.903Z,11.30
2019-03-16T23:28:59.336Z,11.30
2019-03-16T23:31:28.995Z,11.30
2019-03-16T23:33:59.019Z,11.30
2019-03-16T23:36:29.794Z,11.20
2019-03-16T23:39:07.153Z,11.10
2019-03-16T23:41:40.576Z,11.10
2019-03-16T23:44:50.765Z,11.00
2019-03-16T23:47:31.558Z,11.00
2019-03-16T23:50:15.443Z,11.10
2019-03-16T23:52:56.513Z,10.90
2019-03-16T23:55:31.081Z,10.80
2019-03-16T23:58:05.362Z,10.80
